sensor_id;sensor_type;location;lat;lon;timestamp;P1;durP1;ratioP1;P2;durP2;ratioP2
52136;SDS011;69622;49.570;10.986;2023-06-22T00:01:10;10.57;;;8.30;;
52136;SDS011;69622;49.570;10.986;2023-06-22T00:04:12;12.85;;;9.07;;
52136;SDS011;69622;49.570;10.986;2023-06-22T00:07:13;10.90;;;8.07;;
52136;SDS011;69622;49.570;10.986;2023-06-22T00:10:15;9.68;;;8.57;;
52136;SDS011;69622;49.570;10.986;2023-06-22T00:13:16;9.63;;;8.23;;
52136;SDS011;69622;49.570;10.986;2023-06-22T00:16:19;14.82;;;8.48;;
52136;SDS011;69622;49.570;10.986;2023-06-22T00:19:23;10.48;;;7.38;;
52136;SDS011;69622;49.570;10.986;2023-06-22T00:22:24;12.50;;;7.13;;
52136;SDS011;69622;49.570;10.986;2023-06-22T00:25:29;10.40;;;7.35;;
52136;SDS011;69622;49.570;10.986;2023-06-22T00:28:30;10.65;;;7.57;;
52136;SDS011;69622;49.570;10.986;2023-06-22T00:31:32;10.32;;;7.32;;
52136;SDS011;69622;49.570;10.986;2023-06-22T00:34:33;9.07;;;8.18;;
52136;SDS011;69622;49.570;10.986;2023-06-22T00:37:35;11.35;;;8.25;;
52136;SDS011;69622;49.570;10.986;2023-06-22T00:40:37;11.55;;;8.93;;
52136;SDS011;69622;49.570;10.986;2023-06-22T00:43:38;14.57;;;8.95;;
52136;SDS011;69622;49.570;10.986;2023-06-22T00:46:40;9.95;;;8.50;;
52136;SDS011;69622;49.570;10.986;2023-06-22T00:49:41;13.25;;;9.27;;
52136;SDS011;69622;49.570;10.986;2023-06-22T00:52:43;12.93;;;9.32;;
52136;SDS011;69622;49.570;10.986;2023-06-22T00:55:45;11.80;;;9.55;;
52136;SDS011;69622;49.570;10.986;2023-06-22T00:58:48;13.38;;;9.80;;
52136;SDS011;69622;49.570;10.986;2023-06-22T01:01:54;11.10;;;9.85;;
52136;SDS011;69622;49.570;10.986;2023-06-22T01:04:57;12.35;;;9.57;;
52136;SDS011;69622;49.570;10.986;2023-06-22T01:08:00;11.43;;;9.18;;
52136;SDS011;69622;49.570;10.986;2023-06-22T01:11:10;13.02;;;9.10;;
52136;SDS011;69622;49.570;10.986;2023-06-22T01:14:24;10.88;;;9.60;;
52136;SDS011;69622;49.570;10.986;2023-06-22T01:17:32;10.27;;;9.18;;
52136;SDS011;69622;49.570;10.986;2023-06-22T01:20:34;12.23;;;9.35;;
52136;SDS011;69622;49.570;10.986;2023-06-22T01:30:27;11.60;;;9.35;;
52136;SDS011;69622;49.570;10.986;2023-06-22T01:33:31;11.68;;;9.40;;
52136;SDS011;69622;49.570;10.986;2023-06-22T01:36:35;13.00;;;9.38;;
52136;SDS011;69622;49.570;10.986;2023-06-22T01:39:39;11.57;;;9.38;;
52136;SDS011;69622;49.570;10.986;2023-06-22T01:42:40;13.65;;;9.48;;
52136;SDS011;69622;49.570;10.986;2023-06-22T01:45:44;10.85;;;9.02;;
52136;SDS011;69622;49.570;10.986;2023-06-22T01:48:46;10.45;;;9.07;;
52136;SDS011;69622;49.570;10.986;2023-06-22T01:51:48;10.77;;;8.63;;
52136;SDS011;69622;49.570;10.986;2023-06-22T01:54:50;10.90;;;8.88;;
52136;SDS011;69622;49.570;10.986;2023-06-22T01:57:51;10.82;;;9.25;;
52136;SDS011;69622;49.570;10.986;2023-06-22T02:00:57;14.25;;;9.27;;
52136;SDS011;69622;49.570;10.986;2023-06-22T02:04:24;10.57;;;8.35;;
52136;SDS011;69622;49.570;10.986;2023-06-22T02:07:34;27.45;;;9.70;;
52136;SDS011;69622;49.570;10.986;2023-06-22T02:10:42;10.13;;;8.73;;
52136;SDS011;69622;49.570;10.986;2023-06-22T02:13:46;12.70;;;9.77;;
52136;SDS011;69622;49.570;10.986;2023-06-22T02:16:47;12.20;;;8.60;;
52136;SDS011;69622;49.570;10.986;2023-06-22T02:19:49;12.18;;;8.30;;
52136;SDS011;69622;49.570;10.986;2023-06-22T02:22:51;10.20;;;8.52;;
52136;SDS011;69622;49.570;10.986;2023-06-22T02:25:52;12.05;;;9.52;;
52136;SDS011;69622;49.570;10.986;2023-06-22T02:28:53;12.50;;;8.77;;
52136;SDS011;69622;49.570;10.986;2023-06-22T02:31:55;13.20;;;9.95;;
52136;SDS011;69622;49.570;10.986;2023-06-22T02:34:57;11.50;;;9.07;;
52136;SDS011;69622;49.570;10.986;2023-06-22T02:37:58;11.80;;;8.68;;
52136;SDS011;69622;49.570;10.986;2023-06-22T02:41:02;11.52;;;9.02;;
52136;SDS011;69622;49.570;10.986;2023-06-22T02:44:04;11.70;;;8.32;;
52136;SDS011;69622;49.570;10.986;2023-06-22T02:47:05;11.05;;;8.52;;
52136;SDS011;69622;49.570;10.986;2023-06-22T02:50:07;15.07;;;9.65;;
52136;SDS011;69622;49.570;10.986;2023-06-22T02:53:08;12.13;;;10.32;;
52136;SDS011;69622;49.570;10.986;2023-06-22T02:56:10;12.57;;;9.80;;
52136;SDS011;69622;49.570;10.986;2023-06-22T02:59:11;14.57;;;9.88;;
52136;SDS011;69622;49.570;10.986;2023-06-22T03:02:13;13.98;;;9.38;;
52136;SDS011;69622;49.570;10.986;2023-06-22T03:05:14;15.13;;;10.32;;
52136;SDS011;69622;49.570;10.986;2023-06-22T03:08:19;14.82;;;10.85;;
52136;SDS011;69622;49.570;10.986;2023-06-22T03:11:21;15.23;;;10.68;;
52136;SDS011;69622;49.570;10.986;2023-06-22T03:14:22;11.90;;;10.18;;
52136;SDS011;69622;49.570;10.986;2023-06-22T03:17:24;13.05;;;9.82;;
52136;SDS011;69622;49.570;10.986;2023-06-22T03:20:26;12.30;;;10.23;;
52136;SDS011;69622;49.570;10.986;2023-06-22T03:23:28;12.07;;;10.15;;
52136;SDS011;69622;49.570;10.986;2023-06-22T03:26:30;11.82;;;10.30;;
52136;SDS011;69622;49.570;10.986;2023-06-22T03:29:31;12.50;;;11.18;;
52136;SDS011;69622;49.570;10.986;2023-06-22T03:32:33;14.48;;;11.55;;
52136;SDS011;69622;49.570;10.986;2023-06-22T03:35:34;14.20;;;12.18;;
52136;SDS011;69622;49.570;10.986;2023-06-22T03:38:36;14.68;;;12.02;;
52136;SDS011;69622;49.570;10.986;2023-06-22T03:41:37;14.05;;;11.95;;
52136;SDS011;69622;49.570;10.986;2023-06-22T03:44:38;15.18;;;11.82;;
52136;SDS011;69622;49.570;10.986;2023-06-22T03:47:40;14.30;;;11.93;;
52136;SDS011;69622;49.570;10.986;2023-06-22T03:50:42;14.27;;;11.13;;
52136;SDS011;69622;49.570;10.986;2023-06-22T03:53:45;13.63;;;11.40;;
52136;SDS011;69622;49.570;10.986;2023-06-22T03:56:46;12.32;;;10.95;;
52136;SDS011;69622;49.570;10.986;2023-06-22T03:59:48;17.05;;;11.88;;
52136;SDS011;69622;49.570;10.986;2023-06-22T04:02:50;12.40;;;10.00;;
52136;SDS011;69622;49.570;10.986;2023-06-22T04:05:51;15.95;;;11.40;;
52136;SDS011;69622;49.570;10.986;2023-06-22T04:08:52;13.15;;;11.75;;
52136;SDS011;69622;49.570;10.986;2023-06-22T04:11:54;14.75;;;11.18;;
52136;SDS011;69622;49.570;10.986;2023-06-22T04:14:55;16.92;;;11.57;;
52136;SDS011;69622;49.570;10.986;2023-06-22T04:17:57;14.48;;;11.30;;
52136;SDS011;69622;49.570;10.986;2023-06-22T04:20:58;14.13;;;11.82;;
52136;SDS011;69622;49.570;10.986;2023-06-22T04:24:00;14.35;;;11.10;;
52136;SDS011;69622;49.570;10.986;2023-06-22T04:27:01;14.02;;;10.95;;
52136;SDS011;69622;49.570;10.986;2023-06-22T04:30:04;14.88;;;11.25;;
52136;SDS011;69622;49.570;10.986;2023-06-22T04:33:06;14.43;;;11.48;;
52136;SDS011;69622;49.570;10.986;2023-06-22T04:36:07;12.95;;;10.70;;
52136;SDS011;69622;49.570;10.986;2023-06-22T04:39:09;16.08;;;10.80;;
52136;SDS011;69622;49.570;10.986;2023-06-22T04:42:12;12.35;;;11.02;;
52136;SDS011;69622;49.570;10.986;2023-06-22T04:45:13;12.75;;;10.30;;
52136;SDS011;69622;49.570;10.986;2023-06-22T04:48:15;14.27;;;10.15;;
52136;SDS011;69622;49.570;10.986;2023-06-22T04:51:17;14.35;;;10.43;;
52136;SDS011;69622;49.570;10.986;2023-06-22T04:54:23;12.48;;;10.23;;
52136;SDS011;69622;49.570;10.986;2023-06-22T04:57:24;11.02;;;9.05;;
52136;SDS011;69622;49.570;10.986;2023-06-22T05:00:33;15.38;;;10.15;;
52136;SDS011;69622;49.570;10.986;2023-06-22T05:03:37;14.15;;;10.45;;
52136;SDS011;69622;49.570;10.986;2023-06-22T05:06:39;12.88;;;10.40;;
52136;SDS011;69622;49.570;10.986;2023-06-22T05:09:41;16.80;;;10.73;;
52136;SDS011;69622;49.570;10.986;2023-06-22T05:12:43;13.68;;;11.05;;
52136;SDS011;69622;49.570;10.986;2023-06-22T05:15:44;13.57;;;10.63;;
52136;SDS011;69622;49.570;10.986;2023-06-22T05:18:49;19.42;;;11.70;;
52136;SDS011;69622;49.570;10.986;2023-06-22T05:21:52;15.17;;;11.77;;
52136;SDS011;69622;49.570;10.986;2023-06-22T05:24:54;15.35;;;11.50;;
52136;SDS011;69622;49.570;10.986;2023-06-22T05:27:57;11.95;;;10.65;;
52136;SDS011;69622;49.570;10.986;2023-06-22T05:30:58;15.45;;;11.15;;
52136;SDS011;69622;49.570;10.986;2023-06-22T05:34:00;18.10;;;11.15;;
52136;SDS011;69622;49.570;10.986;2023-06-22T05:37:02;17.08;;;10.77;;
52136;SDS011;69622;49.570;10.986;2023-06-22T05:40:03;11.57;;;10.02;;
52136;SDS011;69622;49.570;10.986;2023-06-22T05:43:06;14.98;;;10.65;;
52136;SDS011;69622;49.570;10.986;2023-06-22T05:46:07;12.18;;;9.43;;
52136;SDS011;69622;49.570;10.986;2023-06-22T05:49:08;11.05;;;9.93;;
52136;SDS011;69622;49.570;10.986;2023-06-22T05:52:10;12.73;;;10.35;;
52136;SDS011;69622;49.570;10.986;2023-06-22T05:55:11;11.32;;;9.82;;
52136;SDS011;69622;49.570;10.986;2023-06-22T05:58:13;11.23;;;8.98;;
52136;SDS011;69622;49.570;10.986;2023-06-22T06:01:14;10.43;;;8.90;;
52136;SDS011;69622;49.570;10.986;2023-06-22T06:04:17;11.20;;;8.52;;
52136;SDS011;69622;49.570;10.986;2023-06-22T06:07:19;13.32;;;9.60;;
52136;SDS011;69622;49.570;10.986;2023-06-22T06:10:21;11.75;;;9.20;;
52136;SDS011;69622;49.570;10.986;2023-06-22T06:13:22;10.40;;;8.88;;
52136;SDS011;69622;49.570;10.986;2023-06-22T06:16:24;12.23;;;8.40;;
52136;SDS011;69622;49.570;10.986;2023-06-22T06:19:25;9.77;;;8.70;;
52136;SDS011;69622;49.570;10.986;2023-06-22T06:22:27;10.13;;;8.90;;
52136;SDS011;69622;49.570;10.986;2023-06-22T06:25:28;8.75;;;7.82;;
52136;SDS011;69622;49.570;10.986;2023-06-22T06:28:30;8.82;;;7.85;;
52136;SDS011;69622;49.570;10.986;2023-06-22T06:31:31;11.45;;;8.63;;
52136;SDS011;69622;49.570;10.986;2023-06-22T06:34:33;11.38;;;8.50;;
52136;SDS011;69622;49.570;10.986;2023-06-22T06:37:38;10.20;;;8.65;;
52136;SDS011;69622;49.570;10.986;2023-06-22T06:40:41;10.57;;;9.02;;
52136;SDS011;69622;49.570;10.986;2023-06-22T06:43:44;10.70;;;7.80;;
52136;SDS011;69622;49.570;10.986;2023-06-22T06:46:45;13.98;;;8.70;;
52136;SDS011;69622;49.570;10.986;2023-06-22T06:49:47;11.20;;;8.13;;
52136;SDS011;69622;49.570;10.986;2023-06-22T06:52:48;12.02;;;7.90;;
52136;SDS011;69622;49.570;10.986;2023-06-22T06:55:51;12.40;;;8.80;;
52136;SDS011;69622;49.570;10.986;2023-06-22T06:58:53;8.75;;;7.47;;
52136;SDS011;69622;49.570;10.986;2023-06-22T07:01:55;11.95;;;8.30;;
52136;SDS011;69622;49.570;10.986;2023-06-22T07:04:57;11.55;;;8.18;;
52136;SDS011;69622;49.570;10.986;2023-06-22T07:07:59;9.90;;;8.60;;
52136;SDS011;69622;49.570;10.986;2023-06-22T07:11:01;15.35;;;8.77;;
52136;SDS011;69622;49.570;10.986;2023-06-22T07:14:02;12.00;;;7.82;;
52136;SDS011;69622;49.570;10.986;2023-06-22T07:17:05;10.88;;;7.60;;
52136;SDS011;69622;49.570;10.986;2023-06-22T07:20:06;9.25;;;7.40;;
52136;SDS011;69622;49.570;10.986;2023-06-22T07:23:14;11.52;;;7.18;;
52136;SDS011;69622;49.570;10.986;2023-06-22T07:26:15;10.13;;;8.02;;
52136;SDS011;69622;49.570;10.986;2023-06-22T07:29:18;9.23;;;7.93;;
52136;SDS011;69622;49.570;10.986;2023-06-22T07:32:21;7.28;;;6.38;;
52136;SDS011;69622;49.570;10.986;2023-06-22T07:35:23;11.38;;;7.22;;
52136;SDS011;69622;49.570;10.986;2023-06-22T07:38:25;10.60;;;7.78;;
52136;SDS011;69622;49.570;10.986;2023-06-22T07:41:26;7.90;;;6.95;;
52136;SDS011;69622;49.570;10.986;2023-06-22T07:44:28;9.95;;;6.80;;
52136;SDS011;69622;49.570;10.986;2023-06-22T07:47:29;12.23;;;7.97;;
52136;SDS011;69622;49.570;10.986;2023-06-22T07:50:31;11.50;;;7.75;;
52136;SDS011;69622;49.570;10.986;2023-06-22T07:53:33;10.07;;;7.75;;
52136;SDS011;69622;49.570;10.986;2023-06-22T07:56:34;11.57;;;7.15;;
52136;SDS011;69622;49.570;10.986;2023-06-22T07:59:36;7.93;;;6.55;;
52136;SDS011;69622;49.570;10.986;2023-06-22T08:02:37;7.40;;;6.28;;
52136;SDS011;69622;49.570;10.986;2023-06-22T08:05:39;9.60;;;6.65;;
52136;SDS011;69622;49.570;10.986;2023-06-22T08:08:41;9.45;;;6.90;;
52136;SDS011;69622;49.570;10.986;2023-06-22T08:11:43;8.32;;;6.82;;
52136;SDS011;69622;49.570;10.986;2023-06-22T08:14:45;7.78;;;6.28;;
52136;SDS011;69622;49.570;10.986;2023-06-22T08:17:47;13.63;;;6.65;;
52136;SDS011;69622;49.570;10.986;2023-06-22T08:20:48;11.00;;;6.93;;
52136;SDS011;69622;49.570;10.986;2023-06-22T08:23:51;8.90;;;6.97;;
52136;SDS011;69622;49.570;10.986;2023-06-22T08:26:52;8.50;;;6.45;;
52136;SDS011;69622;49.570;10.986;2023-06-22T08:29:53;8.27;;;6.70;;
52136;SDS011;69622;49.570;10.986;2023-06-22T08:32:59;8.02;;;6.30;;
52136;SDS011;69622;49.570;10.986;2023-06-22T08:36:00;8.27;;;5.72;;
52136;SDS011;69622;49.570;10.986;2023-06-22T08:39:02;10.50;;;6.57;;
52136;SDS011;69622;49.570;10.986;2023-06-22T08:42:04;10.30;;;6.53;;
52136;SDS011;69622;49.570;10.986;2023-06-22T08:45:06;9.63;;;6.55;;
52136;SDS011;69622;49.570;10.986;2023-06-22T08:48:08;8.40;;;5.97;;
52136;SDS011;69622;49.570;10.986;2023-06-22T08:51:09;8.23;;;5.80;;
52136;SDS011;69622;49.570;10.986;2023-06-22T08:54:11;7.88;;;6.32;;
52136;SDS011;69622;49.570;10.986;2023-06-22T08:57:12;6.65;;;5.80;;
52136;SDS011;69622;49.570;10.986;2023-06-22T09:00:14;8.45;;;6.47;;
52136;SDS011;69622;49.570;10.986;2023-06-22T09:03:21;10.18;;;5.78;;
52136;SDS011;69622;49.570;10.986;2023-06-22T09:06:22;5.80;;;5.30;;
52136;SDS011;69622;49.570;10.986;2023-06-22T09:09:24;10.27;;;6.43;;
52136;SDS011;69622;49.570;10.986;2023-06-22T09:12:25;8.82;;;6.85;;
52136;SDS011;69622;49.570;10.986;2023-06-22T09:15:28;7.82;;;6.10;;
52136;SDS011;69622;49.570;10.986;2023-06-22T09:18:30;10.63;;;6.03;;
52136;SDS011;69622;49.570;10.986;2023-06-22T09:21:32;8.70;;;6.63;;
52136;SDS011;69622;49.570;10.986;2023-06-22T09:24:35;8.45;;;5.97;;
52136;SDS011;69622;49.570;10.986;2023-06-22T09:27:36;8.40;;;6.07;;
52136;SDS011;69622;49.570;10.986;2023-06-22T09:30:37;9.93;;;6.22;;
52136;SDS011;69622;49.570;10.986;2023-06-22T09:33:39;6.18;;;5.32;;
52136;SDS011;69622;49.570;10.986;2023-06-22T09:36:41;7.85;;;5.50;;
52136;SDS011;69622;49.570;10.986;2023-06-22T09:39:42;8.93;;;6.15;;
52136;SDS011;69622;49.570;10.986;2023-06-22T09:42:44;10.18;;;6.35;;
52136;SDS011;69622;49.570;10.986;2023-06-22T09:45:45;11.10;;;6.03;;
52136;SDS011;69622;49.570;10.986;2023-06-22T09:48:47;7.45;;;5.32;;
52136;SDS011;69622;49.570;10.986;2023-06-22T09:51:48;8.95;;;6.35;;
52136;SDS011;69622;49.570;10.986;2023-06-22T09:54:52;10.77;;;7.10;;
52136;SDS011;69622;49.570;10.986;2023-06-22T09:57:53;12.75;;;5.70;;
52136;SDS011;69622;49.570;10.986;2023-06-22T10:00:56;9.60;;;5.80;;
52136;SDS011;69622;49.570;10.986;2023-06-22T10:03:58;11.10;;;5.38;;
52136;SDS011;69622;49.570;10.986;2023-06-22T10:07:00;10.85;;;6.20;;
52136;SDS011;69622;49.570;10.986;2023-06-22T10:10:02;8.50;;;5.90;;
52136;SDS011;69622;49.570;10.986;2023-06-22T10:13:08;9.70;;;6.40;;
52136;SDS011;69622;49.570;10.986;2023-06-22T10:16:11;9.25;;;6.25;;
52136;SDS011;69622;49.570;10.986;2023-06-22T10:19:13;7.75;;;5.90;;
52136;SDS011;69622;49.570;10.986;2023-06-22T10:22:14;16.40;;;7.05;;
52136;SDS011;69622;49.570;10.986;2023-06-22T10:25:15;10.52;;;6.00;;
52136;SDS011;69622;49.570;10.986;2023-06-22T10:28:17;9.23;;;6.30;;
52136;SDS011;69622;49.570;10.986;2023-06-22T10:31:18;9.75;;;6.28;;
52136;SDS011;69622;49.570;10.986;2023-06-22T10:34:20;10.02;;;5.80;;
52136;SDS011;69622;49.570;10.986;2023-06-22T10:37:21;9.02;;;5.82;;
52136;SDS011;69622;49.570;10.986;2023-06-22T10:40:23;11.63;;;6.30;;
52136;SDS011;69622;49.570;10.986;2023-06-22T10:43:25;8.50;;;6.20;;
52136;SDS011;69622;49.570;10.986;2023-06-22T10:46:26;10.23;;;6.70;;
52136;SDS011;69622;49.570;10.986;2023-06-22T10:49:28;8.45;;;5.57;;
52136;SDS011;69622;49.570;10.986;2023-06-22T10:52:30;10.73;;;5.93;;
52136;SDS011;69622;49.570;10.986;2023-06-22T10:55:31;12.63;;;6.53;;
52136;SDS011;69622;49.570;10.986;2023-06-22T10:58:51;8.45;;;6.05;;
52136;SDS011;69622;49.570;10.986;2023-06-22T11:01:53;8.70;;;5.97;;
52136;SDS011;69622;49.570;10.986;2023-06-22T11:04:54;11.80;;;6.70;;
52136;SDS011;69622;49.570;10.986;2023-06-22T11:07:56;10.57;;;5.93;;
52136;SDS011;69622;49.570;10.986;2023-06-22T11:10:57;13.25;;;5.75;;
52136;SDS011;69622;49.570;10.986;2023-06-22T11:13:59;11.30;;;6.30;;
52136;SDS011;69622;49.570;10.986;2023-06-22T11:17:00;10.27;;;5.43;;
52136;SDS011;69622;49.570;10.986;2023-06-22T11:20:02;9.45;;;5.63;;
52136;SDS011;69622;49.570;10.986;2023-06-22T11:23:10;13.18;;;5.93;;
52136;SDS011;69622;49.570;10.986;2023-06-22T11:26:13;10.93;;;5.28;;
52136;SDS011;69622;49.570;10.986;2023-06-22T11:29:15;12.00;;;5.88;;
52136;SDS011;69622;49.570;10.986;2023-06-22T11:32:36;10.75;;;5.90;;
52136;SDS011;69622;49.570;10.986;2023-06-22T11:35:38;7.97;;;5.97;;
52136;SDS011;69622;49.570;10.986;2023-06-22T11:38:39;10.98;;;5.43;;
52136;SDS011;69622;49.570;10.986;2023-06-22T11:41:41;10.07;;;5.00;;
52136;SDS011;69622;49.570;10.986;2023-06-22T11:44:43;11.27;;;5.63;;
52136;SDS011;69622;49.570;10.986;2023-06-22T11:47:45;10.88;;;6.00;;
52136;SDS011;69622;49.570;10.986;2023-06-22T11:50:46;10.88;;;5.90;;
52136;SDS011;69622;49.570;10.986;2023-06-22T11:53:48;9.75;;;5.90;;
52136;SDS011;69622;49.570;10.986;2023-06-22T11:56:49;12.18;;;5.50;;
52136;SDS011;69622;49.570;10.986;2023-06-22T11:59:51;10.57;;;4.82;;
52136;SDS011;69622;49.570;10.986;2023-06-22T12:02:52;13.50;;;5.68;;
52136;SDS011;69622;49.570;10.986;2023-06-22T12:05:54;7.60;;;5.05;;
52136;SDS011;69622;49.570;10.986;2023-06-22T12:08:55;14.15;;;6.78;;
52136;SDS011;69622;49.570;10.986;2023-06-22T12:11:57;10.73;;;6.50;;
52136;SDS011;69622;49.570;10.986;2023-06-22T12:14:58;13.07;;;5.68;;
52136;SDS011;69622;49.570;10.986;2023-06-22T12:18:04;11.93;;;5.95;;
52136;SDS011;69622;49.570;10.986;2023-06-22T12:21:05;11.50;;;6.30;;
52136;SDS011;69622;49.570;10.986;2023-06-22T12:24:08;13.23;;;6.57;;
52136;SDS011;69622;49.570;10.986;2023-06-22T12:27:09;10.90;;;5.95;;
52136;SDS011;69622;49.570;10.986;2023-06-22T12:30:11;16.27;;;6.80;;
52136;SDS011;69622;49.570;10.986;2023-06-22T12:33:13;9.57;;;6.35;;
52136;SDS011;69622;49.570;10.986;2023-06-22T12:36:14;13.07;;;5.70;;
52136;SDS011;69622;49.570;10.986;2023-06-22T12:39:17;12.68;;;6.03;;
52136;SDS011;69622;49.570;10.986;2023-06-22T12:42:19;14.25;;;6.20;;
52136;SDS011;69622;49.570;10.986;2023-06-22T12:45:20;15.57;;;6.03;;
52136;SDS011;69622;49.570;10.986;2023-06-22T12:48:22;14.65;;;6.90;;
52136;SDS011;69622;49.570;10.986;2023-06-22T12:51:24;11.05;;;6.10;;
52136;SDS011;69622;49.570;10.986;2023-06-22T12:54:25;14.02;;;6.45;;
52136;SDS011;69622;49.570;10.986;2023-06-22T12:57:33;9.57;;;5.38;;
52136;SDS011;69622;49.570;10.986;2023-06-22T13:00:34;8.88;;;5.68;;
52136;SDS011;69622;49.570;10.986;2023-06-22T13:03:36;13.68;;;6.30;;
52136;SDS011;69622;49.570;10.986;2023-06-22T13:06:37;9.90;;;5.93;;
52136;SDS011;69622;49.570;10.986;2023-06-22T13:09:39;17.38;;;6.95;;
52136;SDS011;69622;49.570;10.986;2023-06-22T13:12:40;10.75;;;6.15;;
52136;SDS011;69622;49.570;10.986;2023-06-22T13:15:41;16.10;;;6.57;;
52136;SDS011;69622;49.570;10.986;2023-06-22T13:18:43;19.05;;;5.95;;
52136;SDS011;69622;49.570;10.986;2023-06-22T13:21:44;17.92;;;6.50;;
52136;SDS011;69622;49.570;10.986;2023-06-22T13:24:46;12.90;;;5.80;;
52136;SDS011;69622;49.570;10.986;2023-06-22T13:27:47;17.90;;;6.68;;
52136;SDS011;69622;49.570;10.986;2023-06-22T13:30:49;10.95;;;6.43;;
52136;SDS011;69622;49.570;10.986;2023-06-22T13:33:50;12.50;;;6.57;;
52136;SDS011;69622;49.570;10.986;2023-06-22T13:36:53;11.98;;;6.15;;
52136;SDS011;69622;49.570;10.986;2023-06-22T13:39:55;7.97;;;5.75;;
52136;SDS011;69622;49.570;10.986;2023-06-22T13:42:57;10.10;;;5.85;;
52136;SDS011;69622;49.570;10.986;2023-06-22T13:45:58;13.68;;;6.50;;
52136;SDS011;69622;49.570;10.986;2023-06-22T13:49:00;15.38;;;6.15;;
52136;SDS011;69622;49.570;10.986;2023-06-22T13:52:01;12.20;;;6.57;;
52136;SDS011;69622;49.570;10.986;2023-06-22T13:55:04;16.08;;;6.50;;
52136;SDS011;69622;49.570;10.986;2023-06-22T13:58:08;14.27;;;6.65;;
52136;SDS011;69622;49.570;10.986;2023-06-22T14:01:09;14.93;;;6.07;;
52136;SDS011;69622;49.570;10.986;2023-06-22T14:04:17;17.60;;;7.13;;
52136;SDS011;69622;49.570;10.986;2023-06-22T14:07:19;11.48;;;6.57;;
52136;SDS011;69622;49.570;10.986;2023-06-22T14:10:21;17.95;;;7.18;;
52136;SDS011;69622;49.570;10.986;2023-06-22T14:13:23;9.80;;;5.53;;
52136;SDS011;69622;49.570;10.986;2023-06-22T14:16:24;13.93;;;6.47;;
52136;SDS011;69622;49.570;10.986;2023-06-22T14:19:26;12.38;;;6.30;;
52136;SDS011;69622;49.570;10.986;2023-06-22T14:22:27;10.75;;;6.22;;
52136;SDS011;69622;49.570;10.986;2023-06-22T14:25:30;16.02;;;5.70;;
52136;SDS011;69622;49.570;10.986;2023-06-22T14:28:32;16.13;;;5.65;;
52136;SDS011;69622;49.570;10.986;2023-06-22T14:31:33;13.50;;;6.43;;
52136;SDS011;69622;49.570;10.986;2023-06-22T14:34:35;17.20;;;6.25;;
52136;SDS011;69622;49.570;10.986;2023-06-22T14:37:40;10.77;;;5.93;;
52136;SDS011;69622;49.570;10.986;2023-06-22T14:40:41;13.52;;;6.38;;
52136;SDS011;69622;49.570;10.986;2023-06-22T14:44:03;14.25;;;6.25;;
52136;SDS011;69622;49.570;10.986;2023-06-22T14:47:04;11.20;;;6.07;;
52136;SDS011;69622;49.570;10.986;2023-06-22T14:50:06;16.17;;;5.78;;
52136;SDS011;69622;49.570;10.986;2023-06-22T14:53:08;9.88;;;6.53;;
52136;SDS011;69622;49.570;10.986;2023-06-22T14:56:09;15.77;;;6.03;;
52136;SDS011;69622;49.570;10.986;2023-06-22T14:59:12;10.63;;;6.25;;
52136;SDS011;69622;49.570;10.986;2023-06-22T15:02:13;17.27;;;6.90;;
52136;SDS011;69622;49.570;10.986;2023-06-22T15:05:15;14.27;;;6.18;;
52136;SDS011;69622;49.570;10.986;2023-06-22T15:08:16;13.52;;;5.50;;
52136;SDS011;69622;49.570;10.986;2023-06-22T15:11:18;12.77;;;6.07;;
52136;SDS011;69622;49.570;10.986;2023-06-22T15:14:19;10.52;;;6.38;;
52136;SDS011;69622;49.570;10.986;2023-06-22T15:17:23;11.85;;;6.18;;
52136;SDS011;69622;49.570;10.986;2023-06-22T15:20:27;15.40;;;6.20;;
52136;SDS011;69622;49.570;10.986;2023-06-22T15:23:35;13.40;;;5.97;;
52136;SDS011;69622;49.570;10.986;2023-06-22T15:26:36;16.40;;;6.68;;
52136;SDS011;69622;49.570;10.986;2023-06-22T15:29:38;12.07;;;6.00;;
52136;SDS011;69622;49.570;10.986;2023-06-22T15:32:42;11.88;;;7.05;;
52136;SDS011;69622;49.570;10.986;2023-06-22T15:35:45;11.30;;;5.97;;
52136;SDS011;69622;49.570;10.986;2023-06-22T15:38:47;14.20;;;7.30;;
52136;SDS011;69622;49.570;10.986;2023-06-22T15:41:48;17.58;;;7.45;;
52136;SDS011;69622;49.570;10.986;2023-06-22T15:44:50;18.77;;;6.10;;
52136;SDS011;69622;49.570;10.986;2023-06-22T15:47:51;12.43;;;6.43;;
52136;SDS011;69622;49.570;10.986;2023-06-22T15:50:53;10.27;;;6.20;;
52136;SDS011;69622;49.570;10.986;2023-06-22T15:53:54;20.58;;;6.90;;
52136;SDS011;69622;49.570;10.986;2023-06-22T15:56:59;13.18;;;6.72;;
52136;SDS011;69622;49.570;10.986;2023-06-22T16:00:00;15.77;;;6.00;;
52136;SDS011;69622;49.570;10.986;2023-06-22T16:03:02;15.55;;;6.95;;
52136;SDS011;69622;49.570;10.986;2023-06-22T16:06:03;11.98;;;6.25;;
52136;SDS011;69622;49.570;10.986;2023-06-22T16:09:05;14.88;;;6.43;;
52136;SDS011;69622;49.570;10.986;2023-06-22T16:12:07;13.25;;;6.93;;
52136;SDS011;69622;49.570;10.986;2023-06-22T16:15:09;10.77;;;6.18;;
52136;SDS011;69622;49.570;10.986;2023-06-22T16:18:11;13.80;;;6.05;;
52136;SDS011;69622;49.570;10.986;2023-06-22T16:21:12;10.30;;;5.70;;
52136;SDS011;69622;49.570;10.986;2023-06-22T16:24:14;14.32;;;7.03;;
52136;SDS011;69622;49.570;10.986;2023-06-22T16:27:17;13.60;;;6.43;;
52136;SDS011;69622;49.570;10.986;2023-06-22T16:30:19;15.57;;;6.60;;
52136;SDS011;69622;49.570;10.986;2023-06-22T16:33:21;15.02;;;6.65;;
52136;SDS011;69622;49.570;10.986;2023-06-22T16:36:22;14.98;;;6.35;;
52136;SDS011;69622;49.570;10.986;2023-06-22T16:39:24;14.55;;;6.25;;
52136;SDS011;69622;49.570;10.986;2023-06-22T16:42:26;12.00;;;6.55;;
52136;SDS011;69622;49.570;10.986;2023-06-22T16:45:27;11.52;;;6.50;;
52136;SDS011;69622;49.570;10.986;2023-06-22T16:48:29;10.98;;;6.38;;
52136;SDS011;69622;49.570;10.986;2023-06-22T16:51:31;16.10;;;6.57;;
52136;SDS011;69622;49.570;10.986;2023-06-22T16:54:32;11.40;;;6.43;;
52136;SDS011;69622;49.570;10.986;2023-06-22T16:57:36;13.77;;;5.93;;
52136;SDS011;69622;49.570;10.986;2023-06-22T17:00:38;13.65;;;7.03;;
52136;SDS011;69622;49.570;10.986;2023-06-22T17:03:43;17.30;;;5.57;;
52136;SDS011;69622;49.570;10.986;2023-06-22T17:07:00;13.07;;;5.80;;
52136;SDS011;69622;49.570;10.986;2023-06-22T17:10:08;14.82;;;5.93;;
52136;SDS011;69622;49.570;10.986;2023-06-22T17:13:11;15.43;;;5.82;;
52136;SDS011;69622;49.570;10.986;2023-06-22T17:16:13;12.48;;;5.38;;
52136;SDS011;69622;49.570;10.986;2023-06-22T17:19:15;16.50;;;5.45;;
52136;SDS011;69622;49.570;10.986;2023-06-22T17:22:16;17.60;;;5.53;;
52136;SDS011;69622;49.570;10.986;2023-06-22T17:25:18;9.80;;;5.93;;
52136;SDS011;69622;49.570;10.986;2023-06-22T17:28:21;16.80;;;5.95;;
52136;SDS011;69622;49.570;10.986;2023-06-22T17:31:24;12.05;;;6.30;;
52136;SDS011;69622;49.570;10.986;2023-06-22T17:34:27;12.70;;;5.25;;
52136;SDS011;69622;49.570;10.986;2023-06-22T17:37:33;16.55;;;5.80;;
52136;SDS011;69622;49.570;10.986;2023-06-22T17:40:48;16.75;;;5.50;;
52136;SDS011;69622;49.570;10.986;2023-06-22T17:43:50;14.90;;;5.18;;
52136;SDS011;69622;49.570;10.986;2023-06-22T17:46:52;16.55;;;5.97;;
52136;SDS011;69622;49.570;10.986;2023-06-22T17:50:03;10.23;;;5.30;;
52136;SDS011;69622;49.570;10.986;2023-06-22T17:53:12;12.57;;;6.53;;